createdAt,value
2019-05-03T00:01:36.459Z,7.36
2019-05-03T00:04:11.914Z,7.36
2019-05-03T00:06:44.387Z,7.31
2019-05-03T00:09:17.487Z,7.29
2019-05-03T00:11:50.452Z,7.26
2019-05-03T00:14:25.691Z,7.26
2019-05-03T00:16:58.643Z,7.27
2019-05-03T00:19:32.765Z,7.26
2019-05-03T00:22:06.010Z,7.24
2019-05-03T00:24:39.086Z,7.23
2019-05-03T00:27:12.483Z,7.26
2019-05-03T00:29:46.086Z,7.25
2019-05-03T00:32:19.088Z,7.26
2019-05-03T00:34:52.483Z,7.26
2019-05-03T00:37:25.485Z,7.25
2019-05-03T00:39:58.533Z,7.25
2019-05-03T00:42:31.809Z,7.26
2019-05-03T00:45:07.116Z,7.24
2019-05-03T00:47:42.029Z,7.21
2019-05-03T00:50:15.366Z,7.14
2019-05-03T00:52:48.414Z,7.12
2019-05-03T00:55:22.034Z,7.07
2019-05-03T00:57:55.243Z,7.02
2019-05-03T01:00:28.650Z,6.97
2019-05-03T01:03:02.214Z,6.98
2019-05-03T01:05:35.313Z,6.93
2019-05-03T01:08:08.411Z,6.87
2019-05-03T01:10:42.107Z,6.86
2019-05-03T01:13:15.230Z,6.78
2019-05-03T01:15:48.570Z,6.75
2019-05-03T01:18:21.893Z,6.75
2019-05-03T01:20:55.381Z,6.67
2019-05-03T01:23:28.358Z,6.52
2019-05-03T01:26:02.448Z,6.52
2019-05-03T01:28:35.808Z,6.40
2019-05-03T01:31:09.058Z,6.40
2019-05-03T01:33:42.619Z,6.32
2019-05-03T01:36:15.753Z,6.20
2019-05-03T01:38:48.830Z,6.06
2019-05-03T01:41:22.364Z,5.92
2019-05-03T01:43:55.322Z,5.86
2019-05-03T01:46:28.601Z,5.78
2019-05-03T01:49:01.694Z,5.72
2019-05-03T01:51:34.714Z,5.62
2019-05-03T01:54:07.864Z,5.49
2019-05-03T01:56:49.982Z,5.32
2019-05-03T01:59:15.640Z,5.09
2019-05-03T02:01:48.706Z,4.99
2019-05-03T02:04:21.764Z,4.99
2019-05-03T02:06:54.752Z,4.79
2019-05-03T02:09:27.772Z,4.79
2019-05-03T02:12:02.131Z,4.80
2019-05-03T02:14:35.200Z,4.76
2019-05-03T02:17:08.182Z,4.76
2019-05-03T02:19:42.135Z,4.73
2019-05-03T02:22:15.340Z,4.79
2019-05-03T02:24:48.357Z,4.79
2019-05-03T02:27:22.011Z,4.82
2019-05-03T02:29:55.076Z,4.86
2019-05-03T02:32:28.027Z,4.76
2019-05-03T02:35:02.775Z,4.75
2019-05-03T02:37:35.708Z,4.77
2019-05-03T02:40:08.984Z,4.77
2019-05-03T02:42:42.033Z,4.73
2019-05-03T02:45:15.541Z,4.64
2019-05-03T02:47:48.672Z,4.64
2019-05-03T02:50:21.716Z,4.52
2019-05-03T02:52:55.341Z,4.41
2019-05-03T02:55:28.735Z,4.41
2019-05-03T02:58:01.714Z,4.17
2019-05-03T03:01:06.811Z,4.06
2019-05-03T03:03:39.903Z,3.91
2019-05-03T03:06:15.737Z,3.79
2019-05-03T03:08:50.160Z,3.79
2019-05-03T03:11:26.112Z,3.94
2019-05-03T03:14:00.776Z,4.06
2019-05-03T03:16:36.134Z,4.06
2019-05-03T03:19:12.465Z,4.30
2019-05-03T03:21:47.075Z,4.30
2019-05-03T03:24:25.641Z,4.33
2019-05-03T03:26:58.417Z,4.40
2019-05-03T03:29:35.885Z,4.61
2019-05-03T03:32:20.374Z,4.68
2019-05-03T03:35:11.694Z,4.68
2019-05-03T03:37:41.077Z,4.66
2019-05-03T03:40:16.224Z,4.75
2019-05-03T03:42:51.511Z,4.75
2019-05-03T03:45:25.411Z,4.75
2019-05-03T03:48:01.075Z,4.71
2019-05-03T03:50:35.951Z,4.71
2019-05-03T03:53:10.873Z,4.51
2019-05-03T03:55:46.965Z,4.40
2019-05-03T03:58:22.908Z,4.34
2019-05-03T04:00:55.493Z,4.35
2019-05-03T04:03:28.681Z,4.36
2019-05-03T04:06:01.744Z,4.36
2019-05-03T04:08:36.003Z,4.39
2019-05-03T04:11:09.653Z,4.43
2019-05-03T04:13:45.224Z,4.43
2019-05-03T04:16:21.092Z,4.43
2019-05-03T04:18:55.131Z,4.40
2019-05-03T04:21:28.427Z,4.40
2019-05-03T04:24:01.527Z,4.28
2019-05-03T04:26:35.814Z,4.18
2019-05-03T04:29:09.921Z,4.18
2019-05-03T04:31:45.605Z,4.09
2019-05-03T04:34:18.021Z,4.09
2019-05-03T04:36:51.250Z,3.93
2019-05-03T04:39:25.633Z,3.80
2019-05-03T04:41:58.718Z,3.74
2019-05-03T04:44:31.802Z,3.74
2019-05-03T04:47:06.753Z,3.67
2019-05-03T04:49:39.572Z,3.67
2019-05-03T04:52:12.524Z,3.60
2019-05-03T04:54:45.503Z,3.62
2019-05-03T04:57:35.213Z,3.64
2019-05-03T04:59:55.849Z,3.69
2019-05-03T05:02:27.893Z,3.66
2019-05-03T05:05:00.800Z,3.66
2019-05-03T05:07:35.038Z,3.71
2019-05-03T05:10:08.164Z,3.71
2019-05-03T05:12:41.337Z,3.74
2019-05-03T05:15:15.653Z,3.74
2019-05-03T05:17:49.243Z,3.76
2019-05-03T05:20:22.144Z,3.72
2019-05-03T05:22:55.091Z,3.79
2019-05-03T05:25:27.960Z,3.86
2019-05-03T05:28:00.854Z,4.06
2019-05-03T05:30:35.333Z,4.06
2019-05-03T05:33:08.513Z,4.23
2019-05-03T05:35:41.409Z,4.57
2019-05-03T05:38:14.976Z,5.23
2019-05-03T05:40:48.077Z,5.33
2019-05-03T05:43:21.010Z,5.36
2019-05-03T05:45:55.642Z,5.27
2019-05-03T05:48:28.723Z,5.13
2019-05-03T05:51:01.759Z,5.09
2019-05-03T05:53:35.883Z,5.09
2019-05-03T05:56:08.967Z,5.11
2019-05-03T05:58:41.895Z,5.21
2019-05-03T06:01:14.893Z,5.26
2019-05-03T06:03:48.030Z,5.26
2019-05-03T06:06:20.959Z,5.52
2019-05-03T06:08:54.776Z,5.52
2019-05-03T06:11:27.730Z,5.89
2019-05-03T06:14:00.675Z,6.22
2019-05-03T06:16:34.858Z,6.43
2019-05-03T06:19:07.969Z,6.73
2019-05-03T06:21:40.977Z,7.02
2019-05-03T06:24:14.782Z,7.26
2019-05-03T06:26:47.825Z,7.46
2019-05-03T06:29:20.850Z,7.73
2019-05-03T06:31:55.044Z,7.49
2019-05-03T06:34:28.479Z,7.49
2019-05-03T06:37:01.376Z,7.36
2019-05-03T06:39:35.233Z,7.32
2019-05-03T06:42:09.935Z,7.30
2019-05-03T06:44:45.368Z,7.30
2019-05-03T06:47:17.866Z,7.40
2019-05-03T06:49:50.848Z,7.40
2019-05-03T06:52:27.663Z,7.43
2019-05-03T06:55:00.270Z,7.57
2019-05-03T06:57:35.314Z,7.65
2019-05-03T07:00:08.651Z,7.96
2019-05-03T07:02:41.544Z,7.96
2019-05-03T07:05:15.309Z,8.19
2019-05-03T07:07:48.361Z,8.64
2019-05-03T07:10:21.397Z,8.64
2019-05-03T07:12:54.753Z,8.79
2019-05-03T07:15:28.186Z,8.95
2019-05-03T07:18:01.052Z,8.99
2019-05-03T07:20:35.308Z,8.95
2019-05-03T07:23:08.196Z,9.02
2019-05-03T07:25:41.345Z,9.28
2019-05-03T07:28:15.036Z,9.44
2019-05-03T07:30:48.026Z,9.44
2019-05-03T07:33:20.963Z,10.05
2019-05-03T07:35:54.777Z,10.48
2019-05-03T07:38:27.734Z,10.91
2019-05-03T07:41:00.602Z,10.64
2019-05-03T07:43:35.861Z,10.74
2019-05-03T07:46:08.353Z,10.74
2019-05-03T07:48:41.230Z,10.73
2019-05-03T07:51:14.553Z,10.28
2019-05-03T07:53:47.569Z,9.29
2019-05-03T07:56:20.732Z,9.29
2019-05-03T07:59:02.205Z,8.74
2019-05-03T08:01:28.529Z,8.43
2019-05-03T08:04:01.415Z,8.13
2019-05-03T08:06:34.707Z,8.39
2019-05-03T08:09:08.144Z,8.58
2019-05-03T08:11:41.322Z,8.71
2019-05-03T08:14:17.686Z,8.71
2019-05-03T08:16:48.842Z,8.71
2019-05-03T08:19:24.492Z,9.17
2019-05-03T08:21:56.827Z,10.68
2019-05-03T08:24:29.770Z,13.41
2019-05-03T08:27:04.820Z,17.85
2019-05-03T08:29:38.555Z,19.26
2019-05-03T08:32:11.469Z,20.52
2019-05-03T08:34:45.278Z,20.52
2019-05-03T08:37:18.336Z,21.59
2019-05-03T08:39:51.777Z,18.95
2019-05-03T08:42:25.493Z,20.43
2019-05-03T08:44:58.663Z,20.43
2019-05-03T08:47:31.625Z,18.66
2019-05-03T08:50:05.635Z,16.40
2019-05-03T08:52:39.004Z,16.40
2019-05-03T08:55:12.285Z,16.41
2019-05-03T08:57:45.292Z,16.41
2019-05-03T09:00:18.348Z,13.59
2019-05-03T09:02:51.339Z,13.59
2019-05-03T09:05:25.043Z,12.60
2019-05-03T09:07:58.126Z,11.34
2019-05-03T09:10:31.426Z,10.82
2019-05-03T09:13:06.392Z,10.07
2019-05-03T09:15:39.345Z,10.07
2019-05-03T09:18:15.146Z,10.90
2019-05-03T09:20:47.319Z,14.93
2019-05-03T09:23:23.256Z,18.48
2019-05-03T09:25:55.153Z,22.97
2019-05-03T09:28:29.267Z,22.97
2019-05-03T09:31:02.215Z,20.87
2019-05-03T09:33:37.233Z,15.64
2019-05-03T09:36:10.195Z,15.64
2019-05-03T09:38:45.555Z,13.83
2019-05-03T09:41:18.053Z,13.83
2019-05-03T09:43:51.059Z,16.53
2019-05-03T09:46:32.651Z,18.03
2019-05-03T09:49:13.932Z,18.03
2019-05-03T09:51:48.681Z,19.71
2019-05-03T09:54:36.735Z,18.45
2019-05-03T09:57:30.489Z,15.77
2019-05-03T10:00:13.297Z,17.03
2019-05-03T10:02:55.349Z,17.03
2019-05-03T10:05:40.757Z,15.02
2019-05-03T10:08:29.464Z,13.89
2019-05-03T10:11:11.036Z,13.89
2019-05-03T10:13:51.414Z,13.98
2019-05-03T10:16:32.330Z,13.02
2019-05-03T10:19:16.138Z,12.31
2019-05-03T10:21:57.719Z,11.91
2019-05-03T10:24:38.793Z,11.24
2019-05-03T10:27:20.658Z,11.24
2019-05-03T10:30:09.755Z,13.19
2019-05-03T10:32:56.255Z,15.56
2019-05-03T10:35:44.995Z,14.12
2019-05-03T10:38:30.805Z,14.12
2019-05-03T10:41:27.397Z,13.23
2019-05-03T10:44:26.169Z,12.72
2019-05-03T10:49:51.912Z,12.32
2019-05-03T10:52:29.266Z,11.96
2019-05-03T10:55:10.234Z,14.19
2019-05-03T10:57:56.153Z,16.97
2019-05-03T11:00:49.675Z,18.23
2019-05-03T11:03:14.863Z,14.16
2019-05-03T11:05:50.797Z,12.61
2019-05-03T11:08:37.045Z,12.61
2019-05-03T11:11:20.668Z,11.93
2019-05-03T11:14:28.698Z,13.17
2019-05-03T11:17:14.827Z,13.31
2019-05-03T11:19:57.994Z,13.31
2019-05-03T11:22:45.254Z,14.72
2019-05-03T11:25:25.020Z,17.74
2019-05-03T11:28:25.127Z,17.74
2019-05-03T11:32:09.296Z,20.10
2019-05-03T11:34:16.837Z,20.10
2019-05-03T11:37:01.298Z,16.00
2019-05-03T11:39:38.660Z,16.00
2019-05-03T11:42:15.327Z,13.89
2019-05-03T11:44:57.365Z,12.74
2019-05-03T11:47:38.016Z,11.26
2019-05-03T11:50:22.547Z,11.05
2019-05-03T11:53:00.876Z,12.11
2019-05-03T11:55:42.728Z,12.11
2019-05-03T11:58:27.110Z,13.06
2019-05-03T12:01:13.032Z,14.01
2019-05-03T12:03:45.193Z,15.94
2019-05-03T12:06:24.783Z,13.98
2019-05-03T12:09:05.619Z,13.98
2019-05-03T12:11:38.544Z,12.40
2019-05-03T12:14:15.200Z,11.59
2019-05-03T12:19:31.244Z,14.59
2019-05-03T12:22:07.872Z,14.59
2019-05-03T12:24:46.056Z,16.64
2019-05-03T12:27:22.065Z,17.41
2019-05-03T12:29:57.440Z,15.45
2019-05-03T12:32:34.970Z,13.85
2019-05-03T12:35:15.338Z,13.85
2019-05-03T12:37:55.586Z,12.33
2019-05-03T12:40:29.753Z,12.54
2019-05-03T12:43:09.275Z,12.54
2019-05-03T12:45:50.906Z,15.54
2019-05-03T12:48:32.464Z,17.41
2019-05-03T12:51:15.361Z,18.30
2019-05-03T12:53:59.967Z,16.54
2019-05-03T12:56:36.622Z,15.76
2019-05-03T12:59:09.577Z,15.76
2019-05-03T13:01:45.131Z,15.50
2019-05-03T13:04:17.082Z,16.92
2019-05-03T13:06:49.967Z,16.92
2019-05-03T13:09:25.094Z,16.20
2019-05-03T13:11:59.017Z,13.48
2019-05-03T13:14:32.145Z,13.48
2019-05-03T13:17:04.987Z,12.90
2019-05-03T13:19:37.809Z,12.09
2019-05-03T13:22:10.680Z,11.65
2019-05-03T13:24:45.252Z,11.28
2019-05-03T13:27:18.204Z,11.02
2019-05-03T13:29:51.066Z,10.90
2019-05-03T13:32:24.102Z,11.34
2019-05-03T13:34:56.938Z,12.05
2019-05-03T13:37:29.954Z,12.11
2019-05-03T13:40:03.213Z,11.44
2019-05-03T13:42:36.069Z,11.44
2019-05-03T13:45:09.434Z,11.71
2019-05-03T13:47:44.543Z,12.02
2019-05-03T13:50:17.008Z,12.02
2019-05-03T13:52:49.836Z,12.16
2019-05-03T13:55:24.529Z,13.09
2019-05-03T13:57:57.238Z,13.09
2019-05-03T14:00:30.171Z,13.44
2019-05-03T14:03:04.556Z,13.44
2019-05-03T14:05:37.545Z,12.94
2019-05-03T14:08:10.698Z,12.51
2019-05-03T14:10:45.451Z,12.47
2019-05-03T14:13:18.426Z,12.53
2019-05-03T14:15:51.380Z,13.48
2019-05-03T14:18:25.595Z,13.48
2019-05-03T14:21:01.658Z,14.20
2019-05-03T14:23:34.743Z,14.53
2019-05-03T14:26:07.709Z,13.93
2019-05-03T14:28:40.545Z,13.01
2019-05-03T14:31:14.494Z,12.63
2019-05-03T14:33:47.717Z,12.12
2019-05-03T14:36:20.556Z,12.12
2019-05-03T14:38:54.855Z,11.35
2019-05-03T14:41:27.937Z,11.35
2019-05-03T14:44:01.034Z,10.86
2019-05-03T14:46:36.180Z,10.86
2019-05-03T14:49:08.626Z,10.22
2019-05-03T14:51:41.484Z,9.92
2019-05-03T14:54:14.567Z,9.92
2019-05-03T14:56:47.619Z,9.76
2019-05-03T14:59:20.704Z,9.49
2019-05-03T15:01:55.183Z,9.49
2019-05-03T15:04:28.080Z,9.76
2019-05-03T15:07:01.302Z,9.76
2019-05-03T15:09:35.334Z,9.79
2019-05-03T15:12:08.300Z,9.91
2019-05-03T15:14:41.142Z,9.68
2019-05-03T15:17:14.092Z,9.68
2019-05-03T15:19:46.924Z,9.52
2019-05-03T15:22:19.799Z,9.45
2019-05-03T15:24:54.417Z,9.37
2019-05-03T15:27:27.679Z,9.28
2019-05-03T15:30:01.073Z,9.33
2019-05-03T15:32:35.385Z,9.33
2019-05-03T15:35:08.758Z,9.39
2019-05-03T15:37:41.752Z,9.39
2019-05-03T15:40:15.594Z,9.45
2019-05-03T15:42:48.634Z,9.30
2019-05-03T15:45:21.553Z,9.23
2019-05-03T15:47:54.983Z,9.32
2019-05-03T15:50:28.003Z,9.33
2019-05-03T15:53:00.857Z,9.18
2019-05-03T15:55:33.773Z,9.18
2019-05-03T15:58:06.626Z,9.41
2019-05-03T16:00:39.547Z,9.57
2019-05-03T16:03:14.419Z,9.62
2019-05-03T16:05:47.137Z,9.62
2019-05-03T16:08:20.056Z,9.80
2019-05-03T16:10:54.778Z,9.80
2019-05-03T16:13:27.748Z,9.75
2019-05-03T16:16:00.664Z,9.20
2019-05-03T16:18:35.200Z,8.73
2019-05-03T16:21:08.143Z,8.73
2019-05-03T16:23:40.998Z,8.48
2019-05-03T16:26:14.369Z,8.31
2019-05-03T16:28:47.216Z,8.17
2019-05-03T16:31:20.257Z,8.17
2019-05-03T16:33:54.942Z,7.98
2019-05-03T16:36:28.033Z,7.83
2019-05-03T16:39:00.981Z,7.43
2019-05-03T16:41:35.407Z,7.43
2019-05-03T16:44:08.469Z,7.29
2019-05-03T16:46:41.480Z,7.54
2019-05-03T16:49:15.716Z,7.62
2019-05-03T16:51:48.704Z,7.68
2019-05-03T16:54:21.861Z,7.71
2019-05-03T16:56:55.016Z,7.71
2019-05-03T16:59:27.905Z,7.63
2019-05-03T17:02:00.816Z,7.66
2019-05-03T17:04:34.556Z,7.66
2019-05-03T17:07:07.602Z,7.69
2019-05-03T17:09:40.585Z,7.69
2019-05-03T17:12:15.163Z,7.64
2019-05-03T17:14:48.234Z,7.65
2019-05-03T17:17:21.305Z,7.59
2019-05-03T17:19:55.133Z,7.59
2019-05-03T17:22:28.301Z,7.64
2019-05-03T17:25:04.266Z,7.67
2019-05-03T17:27:37.051Z,7.67
2019-05-03T17:30:10.872Z,7.63
2019-05-03T17:32:44.624Z,7.63
2019-05-03T17:35:17.859Z,7.69
2019-05-03T17:37:50.854Z,7.63
2019-05-03T17:40:23.971Z,7.55
2019-05-03T17:42:56.940Z,7.55
2019-05-03T17:45:30.267Z,7.56
2019-05-03T17:48:04.493Z,7.53
2019-05-03T17:50:37.774Z,7.48
2019-05-03T17:53:10.724Z,7.47
2019-05-03T17:55:44.563Z,7.47
2019-05-03T17:58:17.642Z,7.43
2019-05-03T18:00:51.012Z,7.46
2019-05-03T18:03:25.783Z,7.42
2019-05-03T18:05:58.762Z,7.42
2019-05-03T18:08:31.843Z,6.92
2019-05-03T18:11:05.224Z,6.92
2019-05-03T18:13:38.341Z,6.65
2019-05-03T18:16:11.654Z,6.58
2019-05-03T18:18:45.431Z,6.45
2019-05-03T18:21:18.817Z,6.43
2019-05-03T18:23:51.766Z,6.42
2019-05-03T18:26:25.065Z,6.41
2019-05-03T18:28:58.097Z,6.39
2019-05-03T18:31:31.201Z,6.45
2019-05-03T18:34:06.324Z,6.46
2019-05-03T18:36:38.903Z,6.46
2019-05-03T18:39:11.750Z,6.45
2019-05-03T18:41:45.178Z,6.47
2019-05-03T18:44:18.275Z,6.47
2019-05-03T18:46:51.161Z,6.46
2019-05-03T18:49:24.805Z,6.50
2019-05-03T18:51:57.828Z,6.48
2019-05-03T18:54:30.683Z,6.45
2019-05-03T18:57:05.080Z,6.45
2019-05-03T18:59:38.027Z,6.45
2019-05-03T19:02:11.123Z,6.44
2019-05-03T19:04:45.223Z,6.40
2019-05-03T19:07:18.644Z,6.40
2019-05-03T19:09:51.490Z,6.43
2019-05-03T19:12:26.411Z,6.44
2019-05-03T19:14:59.536Z,6.27
2019-05-03T19:17:32.456Z,5.95
2019-05-03T19:20:05.853Z,5.95
2019-05-03T19:22:38.882Z,5.78
2019-05-03T19:25:11.935Z,5.73
2019-05-03T19:27:45.365Z,5.70
2019-05-03T19:30:18.757Z,5.70
2019-05-03T19:32:51.976Z,5.66
2019-05-03T19:35:27.721Z,5.63
2019-05-03T19:37:59.941Z,5.64
2019-05-03T19:40:34.938Z,5.64
2019-05-03T19:43:07.469Z,5.64
2019-05-03T19:45:40.390Z,5.63
2019-05-03T19:48:14.755Z,5.60
2019-05-03T19:50:48.267Z,5.60
2019-05-03T19:53:21.450Z,5.60
2019-05-03T19:55:55.299Z,5.64
2019-05-03T19:58:28.413Z,5.64
2019-05-03T20:01:01.665Z,5.57
2019-05-03T20:03:35.275Z,5.51
2019-05-03T20:06:08.257Z,5.48
2019-05-03T20:08:41.163Z,5.49
2019-05-03T20:11:14.814Z,5.44
2019-05-03T20:13:48.123Z,5.44
2019-05-03T20:16:21.609Z,5.40
2019-05-03T20:18:55.554Z,5.40
2019-05-03T20:21:28.715Z,5.42
2019-05-03T20:24:02.088Z,5.42
2019-05-03T20:26:34.992Z,5.39
2019-05-03T20:29:07.897Z,5.41
2019-05-03T20:31:40.880Z,5.37
2019-05-03T20:34:15.697Z,5.33
2019-05-03T20:36:48.430Z,5.32
2019-05-03T20:39:21.389Z,5.32
2019-05-03T20:41:55.133Z,5.31
2019-05-03T20:44:28.104Z,5.30
2019-05-03T20:47:01.219Z,5.35
2019-05-03T20:49:34.766Z,5.35
2019-05-03T20:52:07.785Z,5.39
2019-05-03T20:54:40.694Z,5.44
2019-05-03T20:57:14.467Z,5.46
2019-05-03T20:59:51.679Z,5.50
2019-05-03T21:02:22.734Z,5.50
2019-05-03T21:04:55.939Z,5.48
2019-05-03T21:07:29.061Z,5.46
2019-05-03T21:10:02.059Z,5.42
2019-05-03T21:12:35.009Z,5.40
2019-05-03T21:15:08.368Z,5.40
2019-05-03T21:17:41.510Z,5.40
2019-05-03T21:20:14.817Z,5.31
2019-05-03T21:22:47.825Z,5.23
2019-05-03T21:25:20.960Z,5.23
2019-05-03T21:27:55.513Z,5.25
2019-05-03T21:30:28.627Z,5.25
2019-05-03T21:33:01.499Z,5.26
2019-05-03T21:35:41.554Z,5.27
2019-05-03T21:38:09.424Z,5.29
2019-05-03T21:40:42.727Z,5.31
2019-05-03T21:43:15.671Z,5.33
2019-05-03T21:45:48.574Z,5.33
2019-05-03T21:48:21.764Z,5.38
2019-05-03T21:50:55.418Z,5.38
2019-05-03T21:53:28.367Z,5.44
2019-05-03T21:56:01.313Z,5.46
2019-05-03T21:58:35.285Z,5.51
2019-05-03T22:01:08.367Z,5.51
2019-05-03T22:03:41.354Z,5.51
2019-05-03T22:06:15.442Z,5.49
2019-05-03T22:08:49.735Z,5.44
2019-05-03T22:11:22.766Z,5.37
2019-05-03T22:13:57.068Z,5.36
2019-05-03T22:16:30.358Z,5.26
2019-05-03T22:19:03.460Z,5.27
2019-05-03T22:21:36.936Z,5.27
2019-05-03T22:24:10.202Z,5.22
2019-05-03T22:26:45.255Z,5.18
2019-05-03T22:29:18.149Z,5.20
2019-05-03T22:31:51.085Z,5.20
2019-05-03T22:34:25.681Z,5.22
2019-05-03T22:36:59.160Z,5.25
2019-05-03T22:39:32.285Z,5.21
2019-05-03T22:42:06.479Z,5.21
2019-05-03T22:44:39.445Z,5.23
2019-05-03T22:47:14.763Z,5.17
2019-05-03T22:49:47.771Z,5.14
2019-05-03T22:52:20.766Z,5.11
2019-05-03T22:54:55.506Z,5.11
2019-05-03T22:57:28.961Z,5.01
2019-05-03T23:00:06.049Z,5.01
2019-05-03T23:02:37.010Z,4.97
2019-05-03T23:05:10.375Z,4.96
2019-05-03T23:07:44.243Z,4.93
2019-05-03T23:10:18.081Z,4.90
2019-05-03T23:12:51.054Z,4.88
2019-05-03T23:15:24.363Z,4.80
2019-05-03T23:17:57.500Z,4.83
2019-05-03T23:20:30.471Z,4.78
2019-05-03T23:23:05.264Z,4.78
2019-05-03T23:25:37.980Z,4.67
2019-05-03T23:28:10.899Z,4.72
2019-05-03T23:30:44.077Z,4.69
2019-05-03T23:33:16.994Z,4.69
2019-05-03T23:35:50.030Z,4.64
2019-05-03T23:38:24.671Z,4.65
2019-05-03T23:40:58.140Z,4.65
2019-05-03T23:43:31.048Z,4.65
2019-05-03T23:46:05.068Z,4.58
2019-05-03T23:48:38.370Z,4.58
2019-05-03T23:51:11.395Z,4.57
2019-05-03T23:53:44.774Z,4.54
2019-05-03T23:56:17.666Z,4.52
2019-05-03T23:58:50.539Z,4.47
